Time;durP1;ratioP1;P1;durP2;ratioP2;P2;SDS_P1;SDS_P2;PMS_P1;PMS_P2;Temp;Humidity;BMP_temperature;BMP_pressure;BME280_temperature;BME280_humidity;BME280_pressure;Samples;Min_cycle;Max_cycle;Signal;HPM_P1;HPM_P2
2022/01/16 00:05:14;;;;;;;5.57;5.07;;;9.00;99.90;;;;;;4920256;29;20215;-61
2022/01/16 00:07:44;;;;;;;7.20;5.90;;;9.00;99.90;;;;;;4920648;29;20596;-62
2022/01/16 00:10:17;;;;;;;8.48;6.20;;;9.00;99.90;;;;;;4926251;29;20237;-62
2022/01/16 00:12:48;;;;;;;8.30;7.30;;;8.90;99.90;;;;;;4925705;29;20688;-63
2022/01/16 00:15:20;;;;;;;7.97;7.18;;;8.90;99.90;;;;;;4925383;29;20258;-62
2022/01/16 00:17:55;;;;;;;9.18;7.60;;;8.90;99.90;;;;;;4916217;29;20211;-63
2022/01/16 00:20:29;;;;;;;10.25;8.02;;;8.70;99.90;;;;;;4918211;29;20217;-63
2022/01/16 00:23:00;;;;;;;8.45;7.47;;;8.70;99.90;;;;;;4923599;29;20199;-62
2022/01/16 00:25:31;;;;;;;8.87;8.00;;;8.60;99.90;;;;;;4927001;29;20249;-63
2022/01/16 00:28:04;;;;;;;9.20;8.10;;;8.50;99.90;;;;;;4919787;29;20458;-63
2022/01/16 00:30:35;;;;;;;8.98;8.07;;;8.50;99.90;;;;;;4918975;29;20250;-63
2022/01/16 00:33:06;;;;;;;11.10;9.23;;;8.50;99.90;;;;;;4918755;29;20214;-62
2022/01/16 00:35:39;;;;;;;10.88;9.63;;;8.40;99.90;;;;;;4925617;29;20238;-65
2022/01/16 00:38:10;;;;;;;16.58;14.55;;;8.30;99.90;;;;;;4913676;29;20217;-61
2022/01/16 00:40:41;;;;;;;18.80;13.55;;;8.30;99.90;;;;;;4920361;29;20269;-61
2022/01/16 00:43:13;;;;;;;15.95;13.15;;;8.20;99.90;;;;;;4920158;29;20306;-61
2022/01/16 00:45:44;;;;;;;17.45;15.05;;;8.10;99.90;;;;;;4926372;29;20238;-61
2022/01/16 00:48:16;;;;;;;16.20;14.48;;;8.10;99.90;;;;;;4920416;29;20206;-61
2022/01/16 00:50:53;;;;;;;22.35;17.38;;;7.90;99.90;;;;;;4922706;29;20226;-66
2022/01/16 00:53:24;;;;;;;18.77;15.43;;;7.90;99.90;;;;;;4920971;29;20221;-61
2022/01/16 00:55:55;;;;;;;20.52;16.60;;;7.70;99.90;;;;;;4911195;29;20483;-61
2022/01/16 00:58:26;;;;;;;21.02;16.20;;;7.70;99.90;;;;;;4914365;29;20218;-62
2022/01/16 01:00:57;;;;;;;21.73;18.15;;;7.60;99.90;;;;;;4915899;29;20195;-62
2022/01/16 01:03:29;;;;;;;20.00;16.30;;;7.50;99.90;;;;;;4917664;29;20199;-62
2022/01/16 01:06:03;;;;;;;19.08;15.07;;;7.60;99.90;;;;;;4920854;29;20206;-61
2022/01/16 01:08:34;;;;;;;16.73;13.57;;;7.60;99.90;;;;;;4916657;29;20242;-63
2022/01/16 01:11:11;;;;;;;43.97;19.38;;;7.60;99.90;;;;;;4923012;29;20294;-62
2022/01/16 01:14:07;;;;;;;18.58;14.60;;;7.70;99.90;;;;;;4912215;29;20219;-63
2022/01/16 01:16:50;;;;;;;18.88;15.40;;;7.50;99.90;;;;;;4917823;29;20222;-62
2022/01/16 01:19:24;;;;;;;16.38;14.20;;;7.40;99.90;;;;;;4917656;29;20219;-63
2022/01/16 01:21:57;;;;;;;16.60;13.20;;;7.20;99.90;;;;;;4918739;29;20266;-62
2022/01/16 01:24:29;;;;;;;18.67;14.85;;;7.10;99.90;;;;;;4921262;29;20289;-62
2022/01/16 01:27:07;;;;;;;17.65;14.23;;;7.00;99.90;;;;;;4918829;29;20270;-62
2022/01/16 01:29:40;;;;;;;16.70;13.77;;;6.90;99.90;;;;;;4916145;29;20242;-61
2022/01/16 01:32:11;;;;;;;17.65;14.38;;;6.90;99.90;;;;;;4921621;29;20223;-62
2022/01/16 01:34:44;;;;;;;16.55;14.50;;;6.90;99.90;;;;;;4924843;29;20246;-61
2022/01/16 01:37:17;;;;;;;22.23;17.35;;;6.80;99.90;;;;;;4930312;29;20206;-62
2022/01/16 01:39:48;;;;;;;21.45;17.85;;;6.70;99.90;;;;;;4919202;29;20286;-63
2022/01/16 01:42:19;;;;;;;24.80;18.17;;;6.70;99.90;;;;;;4915131;29;20211;-64
2022/01/16 01:53:13;;;;;;;22.27;16.40;;;6.60;99.90;;;;;;4920016;29;20242;-62
2022/01/16 01:55:45;;;;;;;23.75;18.15;;;6.50;99.90;;;;;;4925217;29;20202;-64
2022/01/16 01:58:16;;;;;;;24.27;18.80;;;6.50;99.90;;;;;;4924361;29;20297;-63
2022/01/16 02:00:47;;;;;;;26.45;19.00;;;6.50;99.90;;;;;;4920768;29;20206;-63
2022/01/16 02:03:24;;;;;;;26.33;19.23;;;6.40;99.90;;;;;;4924463;29;20202;-63
2022/01/16 02:05:55;;;;;;;26.20;18.90;;;6.30;99.90;;;;;;4918417;29;20209;-63
2022/01/16 02:08:30;;;;;;;27.70;19.48;;;6.30;99.90;;;;;;4924281;29;20199;-63
2022/01/16 02:11:02;;;;;;;28.35;20.48;;;6.30;99.90;;;;;;4924153;29;20309;-66
2022/01/16 02:13:45;;;;;;;21.23;16.70;;;6.30;99.90;;;;;;4917915;29;20283;-65
2022/01/16 02:28:06;;;;;;;33.22;20.90;;;6.40;99.90;;;;;;4920205;29;20210;-63
2022/01/16 02:34:30;;;;;;;33.17;22.13;;;6.40;99.90;;;;;;4928148;29;20270;-64
2022/01/16 02:36:27;;;;;;;252.35;59.08;;;6.40;99.90;;;;;;4919005;29;20222;-65
2022/01/16 02:39:10;;;;;;;32.30;23.05;;;6.40;99.90;;;;;;4924191;29;20270;-65
2022/01/16 02:41:42;;;;;;;28.77;20.35;;;6.50;99.90;;;;;;4928555;29;20721;-63
2022/01/16 02:44:20;;;;;;;28.50;21.45;;;6.40;99.90;;;;;;4924413;29;20258;-63
2022/01/16 02:46:51;;;;;;;30.17;20.25;;;6.30;99.90;;;;;;4924473;29;20230;-63
2022/01/16 02:49:25;;;;;;;36.22;22.90;;;6.30;99.90;;;;;;4916572;29;20290;-63
2022/01/16 02:52:00;;;;;;;33.40;23.90;;;6.30;99.90;;;;;;4925812;29;20294;-62
2022/01/16 02:54:36;;;;;;;32.67;22.23;;;6.20;99.90;;;;;;4928245;29;20209;-63
2022/01/16 02:57:09;;;;;;;45.45;24.15;;;6.20;99.90;;;;;;4918091;29;20267;-63
2022/01/16 02:59:42;;;;;;;36.47;25.77;;;6.20;99.90;;;;;;4922389;29;20226;-62
2022/01/16 03:02:13;;;;;;;40.05;24.95;;;6.20;99.90;;;;;;4918506;29;20267;-62
2022/01/16 03:04:44;;;;;;;234.60;58.03;;;6.10;99.90;;;;;;4923125;29;20207;-62
2022/01/16 03:07:16;;;;;;;38.67;24.13;;;6.40;99.90;;;;;;4926971;29;20242;-62
2022/01/16 03:10:13;;;;;;;36.47;22.40;;;6.30;99.90;;;;;;4916992;29;20236;-63
2022/01/16 03:12:45;;;;;;;31.85;21.45;;;6.20;99.90;;;;;;4921194;29;20227;-63
2022/01/16 03:15:17;;;;;;;31.23;22.58;;;6.20;99.90;;;;;;4923991;29;20188;-64
2022/01/16 03:23:27;;;;;;;20.98;16.17;;;6.10;99.90;;;;;;4915716;29;20226;-63
2022/01/16 03:26:00;;;;;;;18.42;14.15;;;6.10;99.90;;;;;;4927341;29;20202;-64
2022/01/16 03:28:31;;;;;;;15.98;12.57;;;6.10;99.90;;;;;;4923653;29;20203;-63
2022/01/16 03:31:02;;;;;;;13.95;11.32;;;6.10;99.90;;;;;;4919793;29;20206;-63
2022/01/16 03:33:36;;;;;;;11.88;9.40;;;6.20;99.90;;;;;;4917010;29;20199;-62
2022/01/16 03:36:10;;;;;;;12.70;9.65;;;6.20;99.90;;;;;;4917429;29;20263;-63
2022/01/16 03:38:41;;;;;;;9.85;8.70;;;6.30;99.90;;;;;;4917805;29;20275;-63
2022/01/16 03:41:13;;;;;;;8.88;7.93;;;6.30;99.90;;;;;;4921231;29;20266;-63
2022/01/16 03:43:44;;;;;;;11.35;9.20;;;6.30;99.90;;;;;;4927671;29;20207;-63
2022/01/16 03:46:15;;;;;;;10.43;8.75;;;6.40;99.90;;;;;;4927171;29;20595;-63
2022/01/16 03:48:46;;;;;;;9.75;8.00;;;6.30;99.90;;;;;;4927716;29;20289;-62
2022/01/16 03:51:17;;;;;;;12.23;10.73;;;6.40;99.90;;;;;;4914781;29;20259;-63
2022/01/16 03:53:50;;;;;;;13.05;10.45;;;6.40;99.90;;;;;;4927270;29;20309;-63
2022/01/16 03:56:25;;;;;;;14.70;10.60;;;6.50;99.90;;;;;;4927605;29;20290;-63
2022/01/16 03:58:56;;;;;;;9.40;8.40;;;6.50;99.90;;;;;;4926229;29;20293;-63
2022/01/16 04:01:27;;;;;;;13.68;10.60;;;6.40;99.90;;;;;;4916667;29;20213;-63
2022/01/16 04:03:58;;;;;;;12.00;10.52;;;6.40;99.90;;;;;;4916846;29;20207;-64
2022/01/16 04:06:29;;;;;;;14.35;12.18;;;6.40;99.90;;;;;;4918445;29;20210;-64
2022/01/16 04:09:01;;;;;;;15.25;12.05;;;6.50;99.90;;;;;;4914726;29;20266;-63
2022/01/16 04:11:34;;;;;;;13.30;11.85;;;6.60;99.90;;;;;;4922174;29;20297;-63
2022/01/16 04:14:16;;;;;;;14.88;12.57;;;6.50;99.90;;;;;;4911722;29;20305;-68
2022/01/16 04:16:47;;;;;;;13.98;11.25;;;6.40;99.90;;;;;;4924873;29;20220;-63
2022/01/16 04:19:18;;;;;;;13.07;10.82;;;6.50;99.90;;;;;;4925175;29;20202;-63
2022/01/16 04:21:49;;;;;;;14.13;11.23;;;6.60;99.90;;;;;;4924956;29;20290;-63
2022/01/16 04:24:20;;;;;;;17.30;13.18;;;6.50;99.90;;;;;;4917887;29;20215;-63
2022/01/16 04:26:55;;;;;;;15.07;11.77;;;6.60;99.90;;;;;;4925523;29;20379;-63
2022/01/16 04:29:27;;;;;;;15.55;11.55;;;6.50;99.90;;;;;;4924139;29;20206;-61
2022/01/16 04:31:58;;;;;;;16.70;13.02;;;6.50;99.90;;;;;;4915618;29;20242;-63
2022/01/16 04:34:29;;;;;;;18.65;14.13;;;6.50;99.90;;;;;;4920380;29;20224;-62
2022/01/16 04:36:59;;;;;;;20.25;13.63;;;6.50;99.90;;;;;;4924811;29;20191;-63
2022/01/16 04:39:33;;;;;;;13.75;11.13;;;6.50;99.90;;;;;;4917881;29;20206;-61
2022/01/16 04:44:56;;;;;;;16.38;12.73;;;6.40;99.90;;;;;;4919183;29;20218;-62
2022/01/16 04:47:27;;;;;;;15.32;12.23;;;6.40;99.90;;;;;;4918369;29;20252;-62
2022/01/16 04:49:57;;;;;;;12.88;11.30;;;6.40;99.90;;;;;;4925805;29;20294;-64
2022/01/16 04:52:29;;;;;;;14.07;11.52;;;6.40;99.90;;;;;;4925653;29;20240;-64
2022/01/16 04:55:00;;;;;;;12.60;9.48;;;6.30;99.90;;;;;;4925326;29;20206;-63
2022/01/16 04:57:33;;;;;;;9.93;8.93;;;6.20;99.90;;;;;;4916088;29;20207;-62
2022/01/16 05:00:06;;;;;;;9.63;8.05;;;6.10;99.90;;;;;;4921621;29;20611;-63
2022/01/16 05:02:37;;;;;;;11.35;8.55;;;6.10;99.90;;;;;;4923380;29;20230;-62
2022/01/16 05:05:09;;;;;;;9.75;8.48;;;6.20;99.90;;;;;;4914713;29;20211;-63
2022/01/16 05:07:40;;;;;;;11.68;8.52;;;6.20;99.90;;;;;;4917895;29;20203;-63
2022/01/16 05:10:13;;;;;;;11.63;10.15;;;6.20;99.90;;;;;;4929924;29;20202;-62
2022/01/16 05:12:49;;;;;;;15.35;10.98;;;6.10;99.90;;;;;;4929587;29;20301;-62
2022/01/16 05:18:08;;;;;;;15.02;10.75;;;5.80;99.90;;;;;;4921688;29;20294;-62
2022/01/16 05:20:38;;;;;;;7.97;7.18;;;5.60;99.90;;;;;;4924098;29;20266;-61
2022/01/16 05:23:09;;;;;;;7.43;6.20;;;5.60;99.90;;;;;;4914562;29;20207;-65
2022/01/16 05:25:40;;;;;;;5.78;4.90;;;5.50;99.90;;;;;;4929796;29;20262;-62
2022/01/16 05:28:13;;;;;;;3.88;3.42;;;5.40;99.90;;;;;;4926609;29;20251;-62
2022/01/16 05:30:44;;;;;;;5.10;4.68;;;5.30;99.90;;;;;;4924504;29;20238;-62
2022/01/16 05:33:15;;;;;;;5.70;5.13;;;5.30;99.90;;;;;;4920931;29;20748;-62
2022/01/16 05:35:46;;;;;;;5.47;4.80;;;5.30;99.90;;;;;;4916506;29;20330;-62
2022/01/16 05:38:16;;;;;;;5.35;4.63;;;5.20;99.90;;;;;;4920088;29;20199;-62
2022/01/16 05:40:47;;;;;;;5.57;4.97;;;5.20;99.90;;;;;;4927316;29;20242;-62
2022/01/16 05:43:20;;;;;;;5.95;4.63;;;5.10;99.90;;;;;;4914472;29;20221;-62
2022/01/16 05:45:51;;;;;;;5.38;4.55;;;5.00;99.90;;;;;;4918047;29;20295;-62
2022/01/16 05:48:22;;;;;;;5.18;4.10;;;5.10;99.90;;;;;;4925392;29;20217;-62
2022/01/16 05:50:53;;;;;;;6.95;4.53;;;5.00;99.90;;;;;;4925565;29;20203;-63
2022/01/16 05:53:25;;;;;;;6.13;5.43;;;5.00;99.90;;;;;;4929028;29;20294;-62
2022/01/16 05:55:56;;;;;;;5.30;4.60;;;4.90;99.90;;;;;;4929430;29;20226;-62
2022/01/16 05:58:28;;;;;;;5.68;4.82;;;4.90;99.90;;;;;;4921078;29;20279;-62
2022/01/16 06:00:59;;;;;;;5.25;4.45;;;4.90;99.90;;;;;;4919257;29;20271;-62
2022/01/16 06:03:31;;;;;;;4.65;4.13;;;4.80;99.90;;;;;;4927045;29;20207;-62
2022/01/16 06:06:02;;;;;;;5.50;4.10;;;4.90;99.90;;;;;;4918991;29;20221;-62
2022/01/16 06:08:33;;;;;;;3.97;3.58;;;4.90;99.90;;;;;;4927578;29;20195;-62
2022/01/16 06:11:04;;;;;;;4.10;3.80;;;4.80;99.90;;;;;;4929764;29;20297;-62
2022/01/16 06:13:36;;;;;;;3.53;3.22;;;4.80;99.90;;;;;;4928342;29;20932;-62
2022/01/16 06:16:08;;;;;;;2.90;2.67;;;4.80;99.90;;;;;;4920474;29;20211;-62
2022/01/16 06:18:39;;;;;;;3.90;3.60;;;4.80;99.90;;;;;;4922007;29;20207;-62
2022/01/16 06:21:09;;;;;;;4.38;3.97;;;4.80;99.90;;;;;;4925016;29;20274;-62
2022/01/16 06:23:40;;;;;;;3.88;3.47;;;4.70;99.90;;;;;;4921000;29;20213;-62
2022/01/16 06:26:11;;;;;;;4.53;3.00;;;4.70;99.90;;;;;;4926011;29;20194;-61
2022/01/16 06:28:44;;;;;;;3.67;3.38;;;4.60;99.90;;;;;;4917623;29;20238;-61
2022/01/16 06:31:16;;;;;;;3.78;3.10;;;4.60;99.90;;;;;;4925160;29;20207;-63
2022/01/16 06:33:48;;;;;;;3.45;3.15;;;4.60;99.90;;;;;;4919263;29;20222;-61
2022/01/16 06:36:19;;;;;;;3.97;3.55;;;4.50;99.90;;;;;;4926123;29;20207;-61
2022/01/16 06:38:52;;;;;;;4.15;3.75;;;4.60;99.90;;;;;;4916285;29;20203;-62
2022/01/16 06:41:23;;;;;;;3.97;3.65;;;4.50;99.90;;;;;;4910419;29;20605;-61
2022/01/16 06:43:56;;;;;;;3.75;3.45;;;4.50;99.90;;;;;;4919902;29;20650;-62
2022/01/16 06:46:32;;;;;;;3.90;3.45;;;4.40;99.90;;;;;;4914014;29;20235;-62
2022/01/16 06:49:02;;;;;;;3.42;3.15;;;4.40;99.90;;;;;;4913596;29;20233;-62
2022/01/16 06:51:33;;;;;;;4.30;3.70;;;4.30;99.90;;;;;;4928591;29;20270;-61
2022/01/16 06:54:04;;;;;;;4.03;3.30;;;4.30;99.90;;;;;;4928198;29;20235;-62
2022/01/16 06:56:35;;;;;;;3.60;3.30;;;4.20;99.90;;;;;;4929477;29;20262;-62
2022/01/16 06:59:08;;;;;;;4.05;3.20;;;4.20;99.90;;;;;;4926194;29;20206;-62
2022/01/16 07:01:51;;;;;;;4.32;3.92;;;4.10;99.90;;;;;;4917602;29;20265;-62
2022/01/16 07:04:22;;;;;;;4.20;3.88;;;4.10;99.90;;;;;;4927507;29;20206;-62
2022/01/16 07:06:53;;;;;;;4.45;4.00;;;4.00;99.90;;;;;;4922530;29;20216;-62
2022/01/16 07:09:24;;;;;;;4.28;3.92;;;4.00;99.90;;;;;;4924436;29;20195;-62
2022/01/16 07:11:55;;;;;;;4.07;3.65;;;3.90;99.90;;;;;;4928884;29;20279;-62
2022/01/16 07:14:27;;;;;;;4.07;3.67;;;3.90;99.90;;;;;;4925413;29;20262;-62
2022/01/16 07:16:58;;;;;;;4.45;3.80;;;3.90;99.90;;;;;;4922622;29;20213;-62
2022/01/16 07:19:29;;;;;;;5.07;3.72;;;3.90;99.90;;;;;;4928437;29;20210;-62
2022/01/16 07:22:00;;;;;;;3.58;2.97;;;3.80;99.90;;;;;;4927424;29;20203;-62
2022/01/16 07:24:31;;;;;;;3.72;3.42;;;3.80;99.90;;;;;;4927885;29;20266;-62
2022/01/16 07:27:02;;;;;;;4.00;3.42;;;3.70;99.90;;;;;;4922344;29;20259;-62
2022/01/16 07:29:35;;;;;;;4.90;3.88;;;3.70;99.90;;;;;;4914992;29;20206;-63
2022/01/16 07:32:08;;;;;;;5.60;2.95;;;3.70;99.90;;;;;;4928205;29;20210;-62
2022/01/16 07:34:39;;;;;;;3.95;3.63;;;3.70;99.90;;;;;;4924988;29;20253;-61
2022/01/16 07:37:10;;;;;;;4.30;3.45;;;3.70;99.90;;;;;;4919293;29;20231;-60
2022/01/16 07:39:40;;;;;;;6.30;4.20;;;3.70;99.90;;;;;;4926923;29;20209;-62
2022/01/16 07:42:12;;;;;;;3.85;3.30;;;3.60;99.90;;;;;;4928364;29;20199;-61
2022/01/16 07:44:44;;;;;;;4.15;3.28;;;3.60;99.90;;;;;;4922003;29;20207;-61
2022/01/16 07:47:16;;;;;;;4.45;4.03;;;3.50;99.90;;;;;;4927734;29;20291;-61
2022/01/16 07:49:48;;;;;;;5.05;3.53;;;3.60;99.90;;;;;;4923329;29;20210;-60
2022/01/16 07:52:40;;;;;;;5.15;4.53;;;3.60;99.90;;;;;;4921510;29;20237;-60
2022/01/16 07:55:12;;;;;;;4.80;4.30;;;3.60;99.90;;;;;;4927092;29;20234;-62
2022/01/16 07:57:42;;;;;;;4.53;4.05;;;3.60;99.90;;;;;;4926281;29;20272;-62
2022/01/16 08:00:34;;;;;;;4.97;4.40;;;3.60;99.90;;;;;;4920359;29;20204;-61
2022/01/16 08:03:06;;;;;;;5.88;4.53;;;3.50;99.90;;;;;;4918076;29;20249;-61
2022/01/16 08:05:37;;;;;;;7.20;5.55;;;3.50;99.90;;;;;;4924783;29;20211;-61
2022/01/16 08:08:09;;;;;;;6.60;5.78;;;3.50;99.90;;;;;;4912346;29;20690;-61
2022/01/16 08:10:42;;;;;;;5.90;5.28;;;3.50;99.90;;;;;;4919322;29;20260;-62
2022/01/16 08:13:13;;;;;;;5.25;4.75;;;3.40;99.90;;;;;;4923043;29;20242;-61
2022/01/16 08:15:45;;;;;;;6.45;5.40;;;3.40;99.90;;;;;;4911041;29;20678;-64
2022/01/16 08:18:21;;;;;;;4.82;4.10;;;3.40;99.90;;;;;;4921243;29;20212;-63
2022/01/16 08:20:52;;;;;;;5.45;4.55;;;3.40;99.90;;;;;;4927307;29;20215;-60
2022/01/16 08:23:24;;;;;;;5.60;4.95;;;3.30;99.90;;;;;;4919669;29;20282;-65
2022/01/16 08:25:55;;;;;;;5.53;4.70;;;3.30;99.90;;;;;;4915582;29;20214;-61
2022/01/16 08:28:26;;;;;;;5.65;5.10;;;3.30;99.90;;;;;;4926419;29;20191;-62
2022/01/16 08:30:59;;;;;;;5.10;4.57;;;3.30;99.90;;;;;;4927539;29;20262;-61
2022/01/16 08:33:31;;;;;;;5.25;4.75;;;3.20;99.90;;;;;;4927198;29;20213;-61
2022/01/16 08:36:02;;;;;;;5.95;5.10;;;3.20;99.90;;;;;;4925933;29;20325;-61
2022/01/16 08:38:33;;;;;;;5.20;4.70;;;3.20;99.90;;;;;;4918190;29;20203;-60
2022/01/16 08:41:05;;;;;;;6.50;5.80;;;3.20;99.90;;;;;;4930551;29;20206;-61
2022/01/16 08:43:36;;;;;;;5.88;5.30;;;3.10;99.90;;;;;;4930401;29;20221;-61
2022/01/16 08:46:08;;;;;;;5.70;4.50;;;3.20;99.90;;;;;;4922998;29;20238;-62
2022/01/16 08:48:40;;;;;;;7.18;5.95;;;3.00;99.90;;;;;;4928356;29;20202;-63
2022/01/16 08:51:11;;;;;;;6.05;5.30;;;3.00;99.90;;;;;;4922744;29;20198;-62
2022/01/16 08:53:43;;;;;;;7.30;5.55;;;3.20;99.90;;;;;;4930439;29;20239;-60
2022/01/16 08:56:15;;;;;;;9.82;6.60;;;3.30;99.90;;;;;;4912694;29;20248;-60
2022/01/16 08:58:46;;;;;;;6.90;5.80;;;3.40;99.90;;;;;;4919384;29;20999;-61
2022/01/16 09:01:19;;;;;;;9.63;5.65;;;3.50;99.90;;;;;;4931194;29;20559;-62
2022/01/16 09:03:50;;;;;;;8.82;6.47;;;3.60;99.90;;;;;;4930105;29;20333;-60
2022/01/16 09:06:21;;;;;;;6.70;5.25;;;3.60;99.90;;;;;;4919852;29;20210;-60
2022/01/16 09:08:52;;;;;;;8.30;7.15;;;3.70;99.90;;;;;;4930224;29;20689;-61
2022/01/16 09:11:25;;;;;;;9.98;7.00;;;3.70;99.90;;;;;;4929078;29;20285;-61
2022/01/16 09:13:58;;;;;;;9.02;7.10;;;3.80;99.90;;;;;;4916950;29;20196;-62
2022/01/16 09:16:33;;;;;;;9.27;7.68;;;3.90;99.90;;;;;;4930784;29;20266;-62
2022/01/16 09:19:04;;;;;;;13.15;8.63;;;4.00;99.90;;;;;;4920055;29;20203;-62
2022/01/16 09:21:36;;;;;;;12.00;8.48;;;4.10;99.90;;;;;;4919468;29;20345;-62
2022/01/16 09:24:07;;;;;;;10.55;8.10;;;4.10;99.90;;;;;;4922731;29;20211;-62
2022/01/16 09:26:38;;;;;;;15.40;8.68;;;4.10;99.90;;;;;;4928910;29;20266;-63
2022/01/16 09:29:09;;;;;;;13.95;9.52;;;4.10;99.90;;;;;;4920557;29;20289;-62
2022/01/16 09:31:42;;;;;;;14.68;9.50;;;4.10;99.90;;;;;;4917219;29;20199;-62
2022/01/16 09:34:15;;;;;;;14.02;9.55;;;4.20;99.90;;;;;;4913839;29;20268;-62
2022/01/16 09:36:48;;;;;;;14.45;10.23;;;4.20;99.90;;;;;;4919985;29;20673;-63
2022/01/16 09:39:19;;;;;;;17.48;9.98;;;4.20;99.90;;;;;;4928193;29;20266;-61
2022/01/16 09:41:50;;;;;;;17.33;10.70;;;4.30;99.90;;;;;;4924715;29;20202;-62
2022/01/16 09:44:21;;;;;;;17.55;11.80;;;4.30;99.90;;;;;;4921806;29;20197;-62
2022/01/16 09:46:53;;;;;;;16.33;11.65;;;4.30;99.90;;;;;;4922105;29;20235;-62
2022/01/16 09:49:24;;;;;;;18.80;11.82;;;4.40;99.90;;;;;;4924859;29;20226;-62
2022/01/16 09:51:57;;;;;;;17.52;10.60;;;4.40;99.90;;;;;;4927189;29;20206;-62
2022/01/16 09:54:28;;;;;;;16.52;10.27;;;4.60;99.90;;;;;;4921235;29;20294;-62
2022/01/16 09:56:59;;;;;;;15.23;10.57;;;4.50;99.90;;;;;;4919079;29;20210;-62
2022/01/16 09:59:30;;;;;;;18.55;11.48;;;4.50;99.90;;;;;;4925976;29;20194;-62
2022/01/16 10:02:03;;;;;;;20.30;11.95;;;4.60;99.90;;;;;;4929528;29;20619;-62
2022/01/16 10:04:38;;;;;;;18.63;12.43;;;4.60;99.90;;;;;;4928734;29;20674;-62
2022/01/16 10:07:11;;;;;;;20.45;12.05;;;4.70;99.90;;;;;;4917501;29;20198;-62
2022/01/16 10:09:43;;;;;;;23.27;13.32;;;4.70;99.90;;;;;;4925722;29;20222;-62
2022/01/16 10:12:16;;;;;;;21.60;12.60;;;4.70;99.90;;;;;;4927066;29;20576;-63
2022/01/16 10:14:50;;;;;;;19.15;12.45;;;4.80;99.90;;;;;;4921391;29;20192;-62
2022/01/16 10:17:24;;;;;;;17.35;11.52;;;4.80;99.90;;;;;;4929348;29;20197;-62
2022/01/16 10:20:00;;;;;;;19.42;12.02;;;4.70;99.90;;;;;;4927760;29;20218;-62
2022/01/16 10:22:40;;;;;;;15.68;11.40;;;4.80;99.90;;;;;;4926412;29;20294;-62
2022/01/16 10:25:12;;;;;;;24.30;12.77;;;4.80;99.90;;;;;;4927499;29;20274;-62
2022/01/16 10:27:44;;;;;;;20.48;12.23;;;4.90;99.90;;;;;;4929623;29;20586;-62
2022/01/16 10:30:18;;;;;;;16.35;10.68;;;4.90;99.90;;;;;;4926127;29;20238;-62
2022/01/16 10:32:50;;;;;;;17.58;12.15;;;5.00;99.90;;;;;;4924055;29;20202;-61
2022/01/16 10:35:23;;;;;;;15.45;10.45;;;5.00;99.90;;;;;;4914637;29;20244;-60
2022/01/16 10:37:56;;;;;;;19.15;10.93;;;5.00;99.90;;;;;;4922882;29;20207;-60
2022/01/16 10:40:34;;;;;;;14.27;11.50;;;5.00;99.90;;;;;;4921201;29;20235;-60
2022/01/16 10:43:13;;;;;;;17.55;10.75;;;5.00;99.90;;;;;;4923706;29;20216;-60
2022/01/16 10:45:45;;;;;;;16.10;10.52;;;4.90;99.90;;;;;;4922119;29;20238;-61
2022/01/16 10:48:23;;;;;;;18.40;11.27;;;4.90;99.90;;;;;;4925655;29;20195;-60
2022/01/16 10:50:55;;;;;;;15.27;10.13;;;4.90;99.90;;;;;;4922827;29;20267;-61
2022/01/16 10:53:27;;;;;;;18.92;11.65;;;4.90;99.90;;;;;;4922747;29;20203;-60
2022/01/16 10:56:00;;;;;;;18.98;10.88;;;4.90;99.90;;;;;;4920725;29;20304;-61
2022/01/16 10:58:39;;;;;;;18.35;11.43;;;4.90;99.90;;;;;;4927071;29;20293;-62
2022/01/16 11:01:13;;;;;;;14.80;10.27;;;4.90;99.90;;;;;;4924949;29;20326;-61
2022/01/16 11:03:47;;;;;;;17.13;10.52;;;4.90;99.90;;;;;;4926207;29;20284;-61
2022/01/16 11:06:21;;;;;;;20.60;10.68;;;4.90;99.90;;;;;;4926731;29;20259;-61
2022/01/16 11:08:53;;;;;;;41.28;14.57;;;4.90;99.90;;;;;;4921507;29;20270;-61
2022/01/16 11:11:25;;;;;;;15.95;10.82;;;4.90;99.90;;;;;;4925918;29;20297;-61
2022/01/16 11:14:00;;;;;;;17.55;11.40;;;4.90;99.90;;;;;;4922760;29;20232;-61
2022/01/16 11:16:32;;;;;;;24.17;12.50;;;5.00;99.90;;;;;;4917532;29;20229;-61
2022/01/16 11:19:06;;;;;;;20.48;12.50;;;5.10;99.90;;;;;;4913559;29;20300;-61
2022/01/16 11:21:42;;;;;;;19.35;10.85;;;5.10;99.90;;;;;;4919043;29;20199;-61
2022/01/16 11:24:25;;;;;;;14.00;9.40;;;5.10;99.90;;;;;;4922178;29;20207;-61
2022/01/16 11:26:59;;;;;;;18.00;9.65;;;5.00;99.90;;;;;;4912321;29;20239;-61
2022/01/16 11:29:31;;;;;;;18.30;10.00;;;5.00;99.90;;;;;;4912430;29;20234;-61
2022/01/16 11:32:02;;;;;;;17.23;10.95;;;5.00;99.90;;;;;;4925217;29;20297;-61
2022/01/16 11:34:35;;;;;;;15.77;10.93;;;5.10;99.90;;;;;;4927609;29;20254;-61
2022/01/16 11:37:06;;;;;;;13.48;8.98;;;5.00;99.90;;;;;;4925726;29;20311;-61
2022/01/16 11:39:39;;;;;;;17.27;10.20;;;4.90;99.90;;;;;;4927202;29;20212;-61
2022/01/16 11:42:25;;;;;;;16.45;10.45;;;5.00;99.90;;;;;;4916423;29;20241;-61
2022/01/16 11:44:57;;;;;;;15.15;9.73;;;5.00;99.90;;;;;;4920426;29;20282;-61
2022/01/16 11:47:27;;;;;;;15.82;10.55;;;5.00;99.90;;;;;;4927332;29;20266;-61
2022/01/16 11:50:10;;;;;;;14.80;9.80;;;5.00;99.90;;;;;;4926664;29;20210;-61
2022/01/16 11:52:43;;;;;;;15.35;9.93;;;5.00;99.90;;;;;;4914380;29;20599;-61
2022/01/16 11:55:14;;;;;;;17.27;9.95;;;5.00;99.90;;;;;;4922316;29;20258;-61
2022/01/16 11:58:03;;;;;;;19.08;10.95;;;4.90;99.90;;;;;;4914196;29;20254;-61
2022/01/16 12:00:45;;;;;;;13.65;10.02;;;5.10;99.90;;;;;;4920665;29;20207;-61
2022/01/16 12:03:35;;;;;;;11.18;8.98;;;5.10;99.90;;;;;;4921690;29;20243;-61
2022/01/16 12:06:35;;;;;;;17.52;9.63;;;5.10;99.90;;;;;;4924082;29;20230;-61
2022/01/16 12:09:13;;;;;;;14.45;9.93;;;5.10;99.90;;;;;;4912550;29;20231;-61
2022/01/16 12:11:44;;;;;;;14.50;9.30;;;5.10;99.90;;;;;;4919647;29;20266;-61
2022/01/16 12:14:15;;;;;;;14.23;9.60;;;5.10;99.90;;;;;;4925001;29;20202;-61
2022/01/16 12:16:52;;;;;;;16.63;9.63;;;5.10;99.90;;;;;;4927854;29;20321;-61
2022/01/16 12:19:45;;;;;;;15.90;9.88;;;5.10;99.90;;;;;;4919530;29;20203;-61
2022/01/16 12:22:41;;;;;;;16.27;10.55;;;5.10;99.90;;;;;;4927587;29;20202;-61
2022/01/16 12:25:22;;;;;;;16.10;9.55;;;5.10;99.90;;;;;;4918167;29;20211;-62
2022/01/16 12:27:58;;;;;;;23.50;11.45;;;5.10;99.90;;;;;;4918571;29;20298;-62
2022/01/16 12:30:35;;;;;;;24.55;12.02;;;5.10;99.90;;;;;;4921401;29;20217;-61
2022/01/16 12:33:11;;;;;;;44.35;12.32;;;5.10;99.90;;;;;;4926523;29;20214;-62
2022/01/16 12:36:11;;;;;;;23.17;10.65;;;5.20;99.90;;;;;;4925267;29;20286;-62
2022/01/16 12:38:56;;;;;;;24.05;10.98;;;5.20;99.90;;;;;;4926681;29;20210;-62
2022/01/16 12:41:33;;;;;;;22.40;10.77;;;5.20;99.90;;;;;;4926218;29;20191;-62
2022/01/16 12:44:07;;;;;;;20.23;12.15;;;5.10;99.90;;;;;;4927031;29;20206;-61
2022/01/16 12:46:40;;;;;;;23.15;12.35;;;5.20;99.90;;;;;;4920488;29;20295;-62
2022/01/16 12:49:13;;;;;;;17.00;10.88;;;5.20;99.90;;;;;;4925668;29;20278;-62
2022/01/16 12:51:46;;;;;;;16.60;10.90;;;5.20;99.90;;;;;;4927051;29;20234;-61
2022/01/16 12:54:20;;;;;;;17.33;11.82;;;5.20;99.90;;;;;;4914604;29;20249;-62
2022/01/16 12:56:52;;;;;;;15.70;10.73;;;5.30;99.90;;;;;;4917957;29;20226;-61
2022/01/16 12:59:43;;;;;;;17.45;12.18;;;5.30;99.90;;;;;;4925819;29;20203;-61
2022/01/16 13:02:14;;;;;;;15.40;10.60;;;5.20;99.90;;;;;;4917049;29;20291;-61
2022/01/16 13:04:46;;;;;;;14.93;10.57;;;5.10;99.90;;;;;;4917988;29;20235;-61
2022/01/16 13:07:34;;;;;;;18.15;11.35;;;5.10;99.90;;;;;;4924245;29;20221;-61
2022/01/16 13:10:10;;;;;;;13.55;9.50;;;5.10;99.90;;;;;;4912540;29;20245;-61
2022/01/16 13:12:41;;;;;;;15.35;8.70;;;5.10;99.90;;;;;;4920334;29;20233;-61
2022/01/16 13:15:14;;;;;;;13.70;9.77;;;5.00;99.90;;;;;;4915468;29;20207;-61
2022/01/16 13:17:45;;;;;;;14.45;9.38;;;5.00;99.90;;;;;;4916311;29;20263;-61
2022/01/16 13:20:21;;;;;;;11.25;9.05;;;5.00;99.90;;;;;;4925179;29;20275;-61
2022/01/16 13:22:54;;;;;;;12.82;9.85;;;5.00;99.90;;;;;;4924313;29;20380;-61
2022/01/16 13:25:27;;;;;;;14.35;9.93;;;5.00;99.90;;;;;;4912829;29;20227;-61
2022/01/16 13:27:58;;;;;;;12.43;9.25;;;5.00;99.90;;;;;;4925159;29;20207;-61
2022/01/16 13:30:29;;;;;;;11.50;8.80;;;5.10;99.90;;;;;;4920734;29;20831;-61
2022/01/16 13:33:07;;;;;;;11.55;8.80;;;5.10;99.90;;;;;;4921799;29;20195;-60
2022/01/16 13:35:40;;;;;;;12.52;8.70;;;5.10;99.90;;;;;;4927290;29;20544;-61
2022/01/16 13:38:15;;;;;;;14.38;9.43;;;5.20;99.90;;;;;;4929028;29;20286;-61
2022/01/16 13:40:49;;;;;;;13.10;8.30;;;5.30;99.90;;;;;;4922021;29;20270;-61
2022/01/16 13:43:20;;;;;;;12.52;8.15;;;5.20;99.90;;;;;;4921475;29;20214;-61
2022/01/16 13:45:51;;;;;;;11.63;9.30;;;5.20;99.90;;;;;;4917214;29;20242;-61
2022/01/16 13:48:25;;;;;;;8.07;6.50;;;5.20;99.90;;;;;;4914399;29;20284;-61
2022/01/16 13:51:00;;;;;;;12.88;7.65;;;5.20;99.90;;;;;;4926603;29;20209;-61
2022/01/16 13:53:40;;;;;;;11.07;7.35;;;5.20;99.90;;;;;;4924292;29;20210;-61
2022/01/16 13:56:16;;;;;;;10.32;6.40;;;5.10;99.90;;;;;;4918939;29;20573;-61